sensor_id;sensor_type;location;lat;lon;timestamp;temperature;humidity
44982;DHT22;30716;41.740;-70.400;2023-05-07T00:02:01;23.90;43.80
44982;DHT22;30716;41.740;-70.400;2023-05-07T00:04:29;23.90;43.80
44982;DHT22;30716;41.740;-70.400;2023-05-07T00:07:02;23.90;43.80
44982;DHT22;30716;41.740;-70.400;2023-05-07T00:09:28;23.90;43.80
44982;DHT22;30716;41.740;-70.400;2023-05-07T00:11:54;23.90;43.80
44982;DHT22;30716;41.740;-70.400;2023-05-07T00:14:20;24.00;44.00
44982;DHT22;30716;41.740;-70.400;2023-05-07T00:16:46;24.00;44.00
44982;DHT22;30716;41.740;-70.400;2023-05-07T00:19:13;24.00;44.00
44982;DHT22;30716;41.740;-70.400;2023-05-07T00:21:39;24.00;43.90
44982;DHT22;30716;41.740;-70.400;2023-05-07T00:24:05;24.00;43.90
44982;DHT22;30716;41.740;-70.400;2023-05-07T00:26:31;24.00;43.90
44982;DHT22;30716;41.740;-70.400;2023-05-07T00:28:57;24.00;43.90
44982;DHT22;30716;41.740;-70.400;2023-05-07T00:31:23;24.10;44.10
44982;DHT22;30716;41.740;-70.400;2023-05-07T00:33:49;24.00;43.90
44982;DHT22;30716;41.740;-70.400;2023-05-07T00:36:16;24.00;43.90
44982;DHT22;30716;41.740;-70.400;2023-05-07T00:38:42;24.10;44.00
44982;DHT22;30716;41.740;-70.400;2023-05-07T00:41:08;24.00;43.90
44982;DHT22;30716;41.740;-70.400;2023-05-07T00:43:34;24.00;43.90
44982;DHT22;30716;41.740;-70.400;2023-05-07T00:46:00;24.00;43.90
44982;DHT22;30716;41.740;-70.400;2023-05-07T00:48:27;24.10;44.10
44982;DHT22;30716;41.740;-70.400;2023-05-07T00:50:54;24.00;43.90
44982;DHT22;30716;41.740;-70.400;2023-05-07T00:53:21;24.00;44.00
44982;DHT22;30716;41.740;-70.400;2023-05-07T00:55:47;24.00;43.90
44982;DHT22;30716;41.740;-70.400;2023-05-07T00:58:14;24.00;43.90
44982;DHT22;30716;41.740;-70.400;2023-05-07T01:00:40;24.00;43.90
44982;DHT22;30716;41.740;-70.400;2023-05-07T01:03:07;24.00;44.00
44982;DHT22;30716;41.740;-70.400;2023-05-07T01:05:33;24.00;43.90
44982;DHT22;30716;41.740;-70.400;2023-05-07T01:07:59;24.00;44.00
44982;DHT22;30716;41.740;-70.400;2023-05-07T01:10:26;24.00;44.00
44982;DHT22;30716;41.740;-70.400;2023-05-07T01:12:54;24.00;44.10
44982;DHT22;30716;41.740;-70.400;2023-05-07T01:15:20;24.00;43.90
44982;DHT22;30716;41.740;-70.400;2023-05-07T01:17:46;24.00;44.00
44982;DHT22;30716;41.740;-70.400;2023-05-07T01:20:13;24.00;44.00
44982;DHT22;30716;41.740;-70.400;2023-05-07T01:22:40;24.10;44.10
44982;DHT22;30716;41.740;-70.400;2023-05-07T01:25:07;24.00;44.00
44982;DHT22;30716;41.740;-70.400;2023-05-07T01:27:34;24.00;44.00
44982;DHT22;30716;41.740;-70.400;2023-05-07T01:30:01;24.10;44.10
44982;DHT22;30716;41.740;-70.400;2023-05-07T01:32:37;24.00;44.20
44982;DHT22;30716;41.740;-70.400;2023-05-07T01:35:07;24.00;43.90
44982;DHT22;30716;41.740;-70.400;2023-05-07T01:37:36;24.00;44.10
44982;DHT22;30716;41.740;-70.400;2023-05-07T01:40:03;24.10;44.10
44982;DHT22;30716;41.740;-70.400;2023-05-07T01:42:29;24.00;44.00
44982;DHT22;30716;41.740;-70.400;2023-05-07T01:44:59;24.00;44.00
44982;DHT22;30716;41.740;-70.400;2023-05-07T01:47:26;24.00;44.00
44982;DHT22;30716;41.740;-70.400;2023-05-07T01:49:52;24.00;44.00
44982;DHT22;30716;41.740;-70.400;2023-05-07T01:52:19;24.00;43.90
44982;DHT22;30716;41.740;-70.400;2023-05-07T01:54:45;24.10;43.90
44982;DHT22;30716;41.740;-70.400;2023-05-07T01:57:11;24.10;44.00
44982;DHT22;30716;41.740;-70.400;2023-05-07T01:59:37;24.10;44.00
44982;DHT22;30716;41.740;-70.400;2023-05-07T02:02:04;24.10;44.10
44982;DHT22;30716;41.740;-70.400;2023-05-07T02:04:30;24.00;43.90
44982;DHT22;30716;41.740;-70.400;2023-05-07T02:06:57;24.00;44.70
44982;DHT22;30716;41.740;-70.400;2023-05-07T02:09:23;24.00;44.10
44982;DHT22;30716;41.740;-70.400;2023-05-07T02:11:49;24.00;44.20
44982;DHT22;30716;41.740;-70.400;2023-05-07T02:14:16;24.10;44.10
44982;DHT22;30716;41.740;-70.400;2023-05-07T02:16:42;24.00;44.20
44982;DHT22;30716;41.740;-70.400;2023-05-07T02:19:08;24.10;44.10
44982;DHT22;30716;41.740;-70.400;2023-05-07T02:21:35;24.00;44.10
44982;DHT22;30716;41.740;-70.400;2023-05-07T02:24:01;24.00;44.10
44982;DHT22;30716;41.740;-70.400;2023-05-07T02:26:28;24.00;44.00
44982;DHT22;30716;41.740;-70.400;2023-05-07T02:28:54;24.00;44.00
44982;DHT22;30716;41.740;-70.400;2023-05-07T02:31:20;24.00;44.00
44982;DHT22;30716;41.740;-70.400;2023-05-07T02:33:47;24.00;43.90
44982;DHT22;30716;41.740;-70.400;2023-05-07T02:36:13;24.10;44.00
44982;DHT22;30716;41.740;-70.400;2023-05-07T02:38:39;24.00;44.00
44982;DHT22;30716;41.740;-70.400;2023-05-07T02:41:06;24.10;44.10
44982;DHT22;30716;41.740;-70.400;2023-05-07T02:43:33;24.10;44.80
44982;DHT22;30716;41.740;-70.400;2023-05-07T02:46:07;24.10;44.10
44982;DHT22;30716;41.740;-70.400;2023-05-07T02:48:34;24.10;44.10
44982;DHT22;30716;41.740;-70.400;2023-05-07T02:51:00;24.10;44.10
44982;DHT22;30716;41.740;-70.400;2023-05-07T02:53:27;24.10;44.10
44982;DHT22;30716;41.740;-70.400;2023-05-07T02:55:57;24.10;44.10
44982;DHT22;30716;41.740;-70.400;2023-05-07T02:58:24;24.10;44.10
44982;DHT22;30716;41.740;-70.400;2023-05-07T03:00:51;24.00;44.00
44982;DHT22;30716;41.740;-70.400;2023-05-07T03:03:17;24.10;44.20
44982;DHT22;30716;41.740;-70.400;2023-05-07T03:05:43;24.10;44.30
44982;DHT22;30716;41.740;-70.400;2023-05-07T03:08:10;24.00;44.20
44982;DHT22;30716;41.740;-70.400;2023-05-07T03:10:36;24.00;44.30
44982;DHT22;30716;41.740;-70.400;2023-05-07T03:13:03;24.00;45.00
44982;DHT22;30716;41.740;-70.400;2023-05-07T03:15:29;24.00;44.00
44982;DHT22;30716;41.740;-70.400;2023-05-07T03:17:56;24.00;44.10
44982;DHT22;30716;41.740;-70.400;2023-05-07T03:20:22;24.00;44.10
44982;DHT22;30716;41.740;-70.400;2023-05-07T03:22:48;24.10;44.10
44982;DHT22;30716;41.740;-70.400;2023-05-07T03:25:15;24.00;44.10
44982;DHT22;30716;41.740;-70.400;2023-05-07T03:27:41;24.00;44.20
44982;DHT22;30716;41.740;-70.400;2023-05-07T03:30:10;24.00;44.20
44982;DHT22;30716;41.740;-70.400;2023-05-07T03:32:36;24.00;44.30
44982;DHT22;30716;41.740;-70.400;2023-05-07T03:35:03;24.00;44.20
44982;DHT22;30716;41.740;-70.400;2023-05-07T03:37:29;24.00;44.20
44982;DHT22;30716;41.740;-70.400;2023-05-07T03:39:55;24.00;44.20
44982;DHT22;30716;41.740;-70.400;2023-05-07T03:42:21;24.00;44.20
44982;DHT22;30716;41.740;-70.400;2023-05-07T03:44:47;24.00;44.20
44982;DHT22;30716;41.740;-70.400;2023-05-07T03:47:13;24.00;44.20
44982;DHT22;30716;41.740;-70.400;2023-05-07T03:49:40;24.00;44.20
44982;DHT22;30716;41.740;-70.400;2023-05-07T03:52:06;24.00;44.00
44982;DHT22;30716;41.740;-70.400;2023-05-07T03:54:33;24.00;44.20
44982;DHT22;30716;41.740;-70.400;2023-05-07T03:56:59;24.00;44.30
44982;DHT22;30716;41.740;-70.400;2023-05-07T03:59:25;24.00;44.10
44982;DHT22;30716;41.740;-70.400;2023-05-07T04:01:51;24.00;44.10
44982;DHT22;30716;41.740;-70.400;2023-05-07T04:04:17;24.00;44.20
44982;DHT22;30716;41.740;-70.400;2023-05-07T04:06:43;24.00;44.20
44982;DHT22;30716;41.740;-70.400;2023-05-07T04:09:10;24.00;44.30
44982;DHT22;30716;41.740;-70.400;2023-05-07T04:11:36;24.00;44.30
44982;DHT22;30716;41.740;-70.400;2023-05-07T04:14:03;24.00;44.30
44982;DHT22;30716;41.740;-70.400;2023-05-07T04:16:29;23.90;44.30
44982;DHT22;30716;41.740;-70.400;2023-05-07T04:18:55;23.90;44.20
44982;DHT22;30716;41.740;-70.400;2023-05-07T04:21:21;23.90;44.30
44982;DHT22;30716;41.740;-70.400;2023-05-07T04:23:48;23.90;44.30
44982;DHT22;30716;41.740;-70.400;2023-05-07T04:26:15;24.00;44.20
44982;DHT22;30716;41.740;-70.400;2023-05-07T04:28:42;23.90;44.20
44982;DHT22;30716;41.740;-70.400;2023-05-07T04:31:08;23.90;44.20
44982;DHT22;30716;41.740;-70.400;2023-05-07T04:33:34;23.90;44.30
44982;DHT22;30716;41.740;-70.400;2023-05-07T04:36:04;23.90;44.20
44982;DHT22;30716;41.740;-70.400;2023-05-07T04:38:30;24.00;44.50
44982;DHT22;30716;41.740;-70.400;2023-05-07T04:41:02;24.00;44.40
44982;DHT22;30716;41.740;-70.400;2023-05-07T04:43:28;23.90;44.40
44982;DHT22;30716;41.740;-70.400;2023-05-07T04:45:54;23.90;44.10
44982;DHT22;30716;41.740;-70.400;2023-05-07T04:48:20;24.00;44.10
44982;DHT22;30716;41.740;-70.400;2023-05-07T04:50:50;24.00;44.20
44982;DHT22;30716;41.740;-70.400;2023-05-07T04:53:17;24.00;44.10
44982;DHT22;30716;41.740;-70.400;2023-05-07T04:55:44;24.00;44.20
44982;DHT22;30716;41.740;-70.400;2023-05-07T04:58:11;24.00;44.10
44982;DHT22;30716;41.740;-70.400;2023-05-07T05:00:38;24.00;44.20
44982;DHT22;30716;41.740;-70.400;2023-05-07T05:03:08;24.00;44.20
44982;DHT22;30716;41.740;-70.400;2023-05-07T05:05:34;24.00;44.20
44982;DHT22;30716;41.740;-70.400;2023-05-07T05:08:00;24.00;44.00
44982;DHT22;30716;41.740;-70.400;2023-05-07T05:10:26;24.00;44.10
44982;DHT22;30716;41.740;-70.400;2023-05-07T05:12:52;24.00;44.10
44982;DHT22;30716;41.740;-70.400;2023-05-07T05:15:18;24.00;44.10
44982;DHT22;30716;41.740;-70.400;2023-05-07T05:17:45;24.00;44.00
44982;DHT22;30716;41.740;-70.400;2023-05-07T05:20:11;24.00;44.00
44982;DHT22;30716;41.740;-70.400;2023-05-07T05:22:38;24.00;44.00
44982;DHT22;30716;41.740;-70.400;2023-05-07T05:25:05;24.00;44.00
44982;DHT22;30716;41.740;-70.400;2023-05-07T05:27:31;24.00;44.10
44982;DHT22;30716;41.740;-70.400;2023-05-07T05:29:57;24.00;44.00
44982;DHT22;30716;41.740;-70.400;2023-05-07T05:32:23;24.00;44.10
44982;DHT22;30716;41.740;-70.400;2023-05-07T05:34:49;24.00;44.00
44982;DHT22;30716;41.740;-70.400;2023-05-07T05:37:16;24.00;44.00
44982;DHT22;30716;41.740;-70.400;2023-05-07T05:39:42;24.00;44.00
44982;DHT22;30716;41.740;-70.400;2023-05-07T05:42:08;24.00;44.00
44982;DHT22;30716;41.740;-70.400;2023-05-07T05:44:34;24.00;43.90
44982;DHT22;30716;41.740;-70.400;2023-05-07T05:47:01;24.10;43.90
44982;DHT22;30716;41.740;-70.400;2023-05-07T05:49:27;24.10;44.00
44982;DHT22;30716;41.740;-70.400;2023-05-07T05:51:53;24.10;44.00
44982;DHT22;30716;41.740;-70.400;2023-05-07T05:54:19;24.10;44.00
44982;DHT22;30716;41.740;-70.400;2023-05-07T05:56:45;24.10;44.00
44982;DHT22;30716;41.740;-70.400;2023-05-07T05:59:11;24.10;43.90
44982;DHT22;30716;41.740;-70.400;2023-05-07T06:01:38;24.10;44.90
44982;DHT22;30716;41.740;-70.400;2023-05-07T06:04:04;24.10;44.10
44982;DHT22;30716;41.740;-70.400;2023-05-07T06:06:30;24.10;44.10
44982;DHT22;30716;41.740;-70.400;2023-05-07T06:08:57;24.00;44.00
44982;DHT22;30716;41.740;-70.400;2023-05-07T06:11:23;24.10;44.10
44982;DHT22;30716;41.740;-70.400;2023-05-07T06:13:50;24.00;44.00
44982;DHT22;30716;41.740;-70.400;2023-05-07T06:16:16;24.00;43.90
44982;DHT22;30716;41.740;-70.400;2023-05-07T06:18:42;24.00;43.90
44982;DHT22;30716;41.740;-70.400;2023-05-07T06:21:09;24.00;43.90
44982;DHT22;30716;41.740;-70.400;2023-05-07T06:23:35;24.00;44.00
44982;DHT22;30716;41.740;-70.400;2023-05-07T06:26:01;24.00;43.90
44982;DHT22;30716;41.740;-70.400;2023-05-07T06:28:27;24.00;44.00
44982;DHT22;30716;41.740;-70.400;2023-05-07T06:30:53;24.00;44.00
44982;DHT22;30716;41.740;-70.400;2023-05-07T06:33:19;24.00;43.90
44982;DHT22;30716;41.740;-70.400;2023-05-07T06:35:46;24.00;43.90
44982;DHT22;30716;41.740;-70.400;2023-05-07T06:38:12;24.00;44.00
44982;DHT22;30716;41.740;-70.400;2023-05-07T06:40:38;24.00;44.00
44982;DHT22;30716;41.740;-70.400;2023-05-07T06:43:04;24.00;44.20
44982;DHT22;30716;41.740;-70.400;2023-05-07T06:45:30;24.00;44.00
44982;DHT22;30716;41.740;-70.400;2023-05-07T06:47:56;24.00;44.00
44982;DHT22;30716;41.740;-70.400;2023-05-07T06:50:23;24.00;44.00
44982;DHT22;30716;41.740;-70.400;2023-05-07T06:52:49;24.00;43.90
44982;DHT22;30716;41.740;-70.400;2023-05-07T06:55:15;24.00;43.90
44982;DHT22;30716;41.740;-70.400;2023-05-07T06:57:41;24.00;44.00
44982;DHT22;30716;41.740;-70.400;2023-05-07T07:00:08;24.00;44.10
44982;DHT22;30716;41.740;-70.400;2023-05-07T07:02:36;24.00;44.00
44982;DHT22;30716;41.740;-70.400;2023-05-07T07:05:02;24.00;44.10
44982;DHT22;30716;41.740;-70.400;2023-05-07T07:07:28;23.90;43.80
44982;DHT22;30716;41.740;-70.400;2023-05-07T07:09:54;23.90;44.60
44982;DHT22;30716;41.740;-70.400;2023-05-07T07:12:21;23.90;43.90
44982;DHT22;30716;41.740;-70.400;2023-05-07T07:14:48;23.90;44.00
44982;DHT22;30716;41.740;-70.400;2023-05-07T07:17:14;24.00;43.90
44982;DHT22;30716;41.740;-70.400;2023-05-07T07:19:40;23.90;43.80
44982;DHT22;30716;41.740;-70.400;2023-05-07T07:22:07;24.00;43.90
44982;DHT22;30716;41.740;-70.400;2023-05-07T07:24:33;24.00;43.80
44982;DHT22;30716;41.740;-70.400;2023-05-07T07:26:59;24.00;44.10
44982;DHT22;30716;41.740;-70.400;2023-05-07T07:29:26;24.00;44.00
44982;DHT22;30716;41.740;-70.400;2023-05-07T07:31:52;23.90;44.60
44982;DHT22;30716;41.740;-70.400;2023-05-07T07:34:18;23.90;44.00
44982;DHT22;30716;41.740;-70.400;2023-05-07T07:36:45;23.90;44.00
44982;DHT22;30716;41.740;-70.400;2023-05-07T07:39:11;23.90;43.90
44982;DHT22;30716;41.740;-70.400;2023-05-07T07:41:37;23.90;44.00
44982;DHT22;30716;41.740;-70.400;2023-05-07T07:44:04;23.90;44.00
44982;DHT22;30716;41.740;-70.400;2023-05-07T07:46:33;23.90;44.00
44982;DHT22;30716;41.740;-70.400;2023-05-07T07:48:59;23.90;44.00
44982;DHT22;30716;41.740;-70.400;2023-05-07T07:51:25;23.90;44.00
44982;DHT22;30716;41.740;-70.400;2023-05-07T07:53:52;23.90;44.10
44982;DHT22;30716;41.740;-70.400;2023-05-07T07:56:18;23.90;43.90
44982;DHT22;30716;41.740;-70.400;2023-05-07T07:58:44;24.00;44.00
44982;DHT22;30716;41.740;-70.400;2023-05-07T08:01:11;24.00;43.90
44982;DHT22;30716;41.740;-70.400;2023-05-07T08:03:38;23.90;44.00
44982;DHT22;30716;41.740;-70.400;2023-05-07T08:06:04;24.00;44.10
44982;DHT22;30716;41.740;-70.400;2023-05-07T08:08:30;24.00;44.00
44982;DHT22;30716;41.740;-70.400;2023-05-07T08:10:57;23.90;44.20
44982;DHT22;30716;41.740;-70.400;2023-05-07T08:13:23;23.90;44.00
44982;DHT22;30716;41.740;-70.400;2023-05-07T08:15:49;23.90;44.00
44982;DHT22;30716;41.740;-70.400;2023-05-07T08:18:15;23.90;44.00
44982;DHT22;30716;41.740;-70.400;2023-05-07T08:20:42;23.90;43.90
44982;DHT22;30716;41.740;-70.400;2023-05-07T08:23:08;23.90;44.10
44982;DHT22;30716;41.740;-70.400;2023-05-07T08:25:34;23.90;44.00
44982;DHT22;30716;41.740;-70.400;2023-05-07T08:28:01;23.90;44.00
44982;DHT22;30716;41.740;-70.400;2023-05-07T08:30:29;24.00;44.00
44982;DHT22;30716;41.740;-70.400;2023-05-07T08:32:55;24.00;43.80
44982;DHT22;30716;41.740;-70.400;2023-05-07T08:35:21;24.00;43.90
44982;DHT22;30716;41.740;-70.400;2023-05-07T08:37:47;23.90;43.80
44982;DHT22;30716;41.740;-70.400;2023-05-07T08:40:13;23.90;43.80
44982;DHT22;30716;41.740;-70.400;2023-05-07T08:42:40;23.90;43.80
44982;DHT22;30716;41.740;-70.400;2023-05-07T08:45:10;24.00;44.00
44982;DHT22;30716;41.740;-70.400;2023-05-07T08:48:00;23.90;44.20
44982;DHT22;30716;41.740;-70.400;2023-05-07T08:50:27;23.90;43.90
44982;DHT22;30716;41.740;-70.400;2023-05-07T08:52:54;23.90;44.10
44982;DHT22;30716;41.740;-70.400;2023-05-07T08:55:22;23.90;44.00
44982;DHT22;30716;41.740;-70.400;2023-05-07T08:57:48;23.90;44.00
44982;DHT22;30716;41.740;-70.400;2023-05-07T09:00:15;23.90;43.80
44982;DHT22;30716;41.740;-70.400;2023-05-07T09:02:42;23.90;43.80
44982;DHT22;30716;41.740;-70.400;2023-05-07T09:05:08;23.90;43.90
44982;DHT22;30716;41.740;-70.400;2023-05-07T09:07:34;23.90;43.80
44982;DHT22;30716;41.740;-70.400;2023-05-07T09:10:04;23.90;43.80
44982;DHT22;30716;41.740;-70.400;2023-05-07T09:12:31;23.90;43.80
44982;DHT22;30716;41.740;-70.400;2023-05-07T09:14:58;23.90;44.00
44982;DHT22;30716;41.740;-70.400;2023-05-07T09:17:24;23.90;43.80
44982;DHT22;30716;41.740;-70.400;2023-05-07T09:19:50;23.90;43.90
44982;DHT22;30716;41.740;-70.400;2023-05-07T09:22:16;23.90;43.80
44982;DHT22;30716;41.740;-70.400;2023-05-07T09:24:49;23.90;43.90
44982;DHT22;30716;41.740;-70.400;2023-05-07T09:27:16;23.90;43.90
44982;DHT22;30716;41.740;-70.400;2023-05-07T09:29:44;23.90;43.90
44982;DHT22;30716;41.740;-70.400;2023-05-07T09:32:10;23.90;44.00
44982;DHT22;30716;41.740;-70.400;2023-05-07T09:34:36;23.80;44.60
44982;DHT22;30716;41.740;-70.400;2023-05-07T09:37:03;23.90;43.80
44982;DHT22;30716;41.740;-70.400;2023-05-07T09:39:47;23.90;43.80
44982;DHT22;30716;41.740;-70.400;2023-05-07T09:42:14;23.90;43.70
44982;DHT22;30716;41.740;-70.400;2023-05-07T09:44:43;23.90;43.80
44982;DHT22;30716;41.740;-70.400;2023-05-07T09:47:10;23.90;43.80
44982;DHT22;30716;41.740;-70.400;2023-05-07T09:49:39;23.90;43.50
44982;DHT22;30716;41.740;-70.400;2023-05-07T09:52:07;23.90;43.80
44982;DHT22;30716;41.740;-70.400;2023-05-07T09:54:37;23.90;43.90
44982;DHT22;30716;41.740;-70.400;2023-05-07T09:57:04;23.90;43.70
44982;DHT22;30716;41.740;-70.400;2023-05-07T09:59:32;23.90;43.80
44982;DHT22;30716;41.740;-70.400;2023-05-07T10:01:59;23.90;44.10
44982;DHT22;30716;41.740;-70.400;2023-05-07T10:04:26;23.80;43.90
44982;DHT22;30716;41.740;-70.400;2023-05-07T10:06:53;23.80;43.70
44982;DHT22;30716;41.740;-70.400;2023-05-07T10:09:21;23.80;43.70
44982;DHT22;30716;41.740;-70.400;2023-05-07T10:11:51;23.80;43.70
44982;DHT22;30716;41.740;-70.400;2023-05-07T10:14:20;23.80;43.70
44982;DHT22;30716;41.740;-70.400;2023-05-07T10:16:48;23.80;43.70
44982;DHT22;30716;41.740;-70.400;2023-05-07T10:19:14;23.80;43.70
44982;DHT22;30716;41.740;-70.400;2023-05-07T10:21:50;23.80;43.70
44982;DHT22;30716;41.740;-70.400;2023-05-07T10:24:22;23.90;43.60
44982;DHT22;30716;41.740;-70.400;2023-05-07T10:26:52;23.80;43.70
44982;DHT22;30716;41.740;-70.400;2023-05-07T10:29:33;23.80;43.70
44982;DHT22;30716;41.740;-70.400;2023-05-07T10:34:50;23.80;43.90
44982;DHT22;30716;41.740;-70.400;2023-05-07T10:37:19;23.80;44.00
44982;DHT22;30716;41.740;-70.400;2023-05-07T10:39:45;23.80;43.70
44982;DHT22;30716;41.740;-70.400;2023-05-07T10:42:13;23.80;43.70
44982;DHT22;30716;41.740;-70.400;2023-05-07T10:44:40;23.80;43.80
44982;DHT22;30716;41.740;-70.400;2023-05-07T10:47:10;23.80;43.80
44982;DHT22;30716;41.740;-70.400;2023-05-07T10:52:31;23.80;43.90
44982;DHT22;30716;41.740;-70.400;2023-05-07T10:57:50;23.80;43.70
44982;DHT22;30716;41.740;-70.400;2023-05-07T11:05:31;23.80;43.50
44982;DHT22;30716;41.740;-70.400;2023-05-07T11:08:02;23.90;43.70
44982;DHT22;30716;41.740;-70.400;2023-05-07T11:10:51;23.80;44.50
44982;DHT22;30716;41.740;-70.400;2023-05-07T11:13:19;23.90;43.80
44982;DHT22;30716;41.740;-70.400;2023-05-07T11:16:05;23.90;43.80
44982;DHT22;30716;41.740;-70.400;2023-05-07T11:18:49;23.80;43.70
44982;DHT22;30716;41.740;-70.400;2023-05-07T11:21:34;23.80;43.60
44982;DHT22;30716;41.740;-70.400;2023-05-07T11:24:02;23.80;43.60
44982;DHT22;30716;41.740;-70.400;2023-05-07T11:26:30;23.80;44.40
44982;DHT22;30716;41.740;-70.400;2023-05-07T11:28:57;23.90;43.80
44982;DHT22;30716;41.740;-70.400;2023-05-07T11:31:27;23.80;43.60
44982;DHT22;30716;41.740;-70.400;2023-05-07T11:33:55;23.90;43.70
44982;DHT22;30716;41.740;-70.400;2023-05-07T11:36:23;23.90;43.60
44982;DHT22;30716;41.740;-70.400;2023-05-07T11:38:50;23.90;43.50
44982;DHT22;30716;41.740;-70.400;2023-05-07T11:41:16;23.90;43.70
44982;DHT22;30716;41.740;-70.400;2023-05-07T11:43:54;23.80;43.50
44982;DHT22;30716;41.740;-70.400;2023-05-07T11:46:23;23.90;44.20
44982;DHT22;30716;41.740;-70.400;2023-05-07T11:48:49;23.80;43.60
44982;DHT22;30716;41.740;-70.400;2023-05-07T11:51:21;23.80;43.60
44982;DHT22;30716;41.740;-70.400;2023-05-07T11:53:47;23.80;43.50
44982;DHT22;30716;41.740;-70.400;2023-05-07T11:56:16;23.80;43.60
44982;DHT22;30716;41.740;-70.400;2023-05-07T11:58:43;23.80;43.50
44982;DHT22;30716;41.740;-70.400;2023-05-07T12:01:11;23.80;43.50
44982;DHT22;30716;41.740;-70.400;2023-05-07T12:03:40;23.80;43.60
44982;DHT22;30716;41.740;-70.400;2023-05-07T12:06:10;23.80;43.60
44982;DHT22;30716;41.740;-70.400;2023-05-07T12:08:39;23.80;43.60
44982;DHT22;30716;41.740;-70.400;2023-05-07T12:11:16;23.80;44.40
44982;DHT22;30716;41.740;-70.400;2023-05-07T12:13:47;23.80;43.50
44982;DHT22;30716;41.740;-70.400;2023-05-07T12:16:14;23.80;43.50
44982;DHT22;30716;41.740;-70.400;2023-05-07T12:18:40;23.80;43.60
44982;DHT22;30716;41.740;-70.400;2023-05-07T12:21:07;23.80;43.60
44982;DHT22;30716;41.740;-70.400;2023-05-07T12:23:35;23.80;43.60
44982;DHT22;30716;41.740;-70.400;2023-05-07T12:26:02;23.80;43.50
44982;DHT22;30716;41.740;-70.400;2023-05-07T12:28:29;23.80;43.50
44982;DHT22;30716;41.740;-70.400;2023-05-07T12:30:57;23.80;43.50
44982;DHT22;30716;41.740;-70.400;2023-05-07T12:33:26;23.80;44.20
44982;DHT22;30716;41.740;-70.400;2023-05-07T12:35:55;23.80;43.60
44982;DHT22;30716;41.740;-70.400;2023-05-07T12:38:22;23.80;43.40
44982;DHT22;30716;41.740;-70.400;2023-05-07T12:40:50;23.80;43.50
44982;DHT22;30716;41.740;-70.400;2023-05-07T12:43:21;23.80;43.60
44982;DHT22;30716;41.740;-70.400;2023-05-07T12:45:51;23.80;43.60
44982;DHT22;30716;41.740;-70.400;2023-05-07T12:48:19;23.80;43.50
44982;DHT22;30716;41.740;-70.400;2023-05-07T12:50:49;23.80;43.60
44982;DHT22;30716;41.740;-70.400;2023-05-07T12:53:15;23.80;43.50
44982;DHT22;30716;41.740;-70.400;2023-05-07T12:55:46;23.80;43.60
44982;DHT22;30716;41.740;-70.400;2023-05-07T12:58:34;23.80;43.40
44982;DHT22;30716;41.740;-70.400;2023-05-07T13:01:05;23.80;43.50
44982;DHT22;30716;41.740;-70.400;2023-05-07T13:03:36;23.80;43.60
44982;DHT22;30716;41.740;-70.400;2023-05-07T13:06:09;23.80;43.50
44982;DHT22;30716;41.740;-70.400;2023-05-07T13:08:41;23.80;43.60
44982;DHT22;30716;41.740;-70.400;2023-05-07T13:11:11;23.80;43.40
44982;DHT22;30716;41.740;-70.400;2023-05-07T13:13:39;23.80;43.30
44982;DHT22;30716;41.740;-70.400;2023-05-07T13:16:09;23.80;43.40
44982;DHT22;30716;41.740;-70.400;2023-05-07T13:18:37;23.80;43.30
44982;DHT22;30716;41.740;-70.400;2023-05-07T13:21:03;23.80;43.30
44982;DHT22;30716;41.740;-70.400;2023-05-07T13:23:30;23.90;43.40
44982;DHT22;30716;41.740;-70.400;2023-05-07T13:25:56;23.90;43.40
44982;DHT22;30716;41.740;-70.400;2023-05-07T13:28:26;23.80;43.30
44982;DHT22;30716;41.740;-70.400;2023-05-07T13:30:52;23.90;43.40
44982;DHT22;30716;41.740;-70.400;2023-05-07T13:33:20;23.90;43.40
44982;DHT22;30716;41.740;-70.400;2023-05-07T13:35:46;23.90;43.40
44982;DHT22;30716;41.740;-70.400;2023-05-07T13:38:12;23.90;43.50
44982;DHT22;30716;41.740;-70.400;2023-05-07T13:40:38;23.90;43.50
44982;DHT22;30716;41.740;-70.400;2023-05-07T13:43:06;23.90;43.50
44982;DHT22;30716;41.740;-70.400;2023-05-07T13:45:32;23.90;43.40
44982;DHT22;30716;41.740;-70.400;2023-05-07T13:47:58;23.90;43.50
44982;DHT22;30716;41.740;-70.400;2023-05-07T13:50:24;23.90;43.40
44982;DHT22;30716;41.740;-70.400;2023-05-07T13:52:52;23.90;43.40
44982;DHT22;30716;41.740;-70.400;2023-05-07T13:55:19;23.90;43.40
44982;DHT22;30716;41.740;-70.400;2023-05-07T13:57:46;23.90;43.50
44982;DHT22;30716;41.740;-70.400;2023-05-07T14:00:13;23.90;43.50
44982;DHT22;30716;41.740;-70.400;2023-05-07T14:02:40;23.90;43.40
44982;DHT22;30716;41.740;-70.400;2023-05-07T14:05:07;23.90;43.40
44982;DHT22;30716;41.740;-70.400;2023-05-07T14:07:33;23.90;43.40
44982;DHT22;30716;41.740;-70.400;2023-05-07T14:09:59;23.90;43.40
44982;DHT22;30716;41.740;-70.400;2023-05-07T14:12:26;23.90;43.60
44982;DHT22;30716;41.740;-70.400;2023-05-07T14:14:52;23.90;43.60
44982;DHT22;30716;41.740;-70.400;2023-05-07T14:17:18;23.90;43.60
44982;DHT22;30716;41.740;-70.400;2023-05-07T14:19:44;23.90;43.50
44982;DHT22;30716;41.740;-70.400;2023-05-07T14:22:12;23.90;43.60
44982;DHT22;30716;41.740;-70.400;2023-05-07T14:24:39;23.90;43.50
44982;DHT22;30716;41.740;-70.400;2023-05-07T14:27:05;23.90;43.50
44982;DHT22;30716;41.740;-70.400;2023-05-07T14:29:32;23.90;43.60
44982;DHT22;30716;41.740;-70.400;2023-05-07T14:31:58;23.90;43.50
44982;DHT22;30716;41.740;-70.400;2023-05-07T14:34:24;23.90;43.50
44982;DHT22;30716;41.740;-70.400;2023-05-07T14:36:50;24.00;43.60
44982;DHT22;30716;41.740;-70.400;2023-05-07T14:39:17;23.90;43.50
44982;DHT22;30716;41.740;-70.400;2023-05-07T14:41:43;24.00;43.50
44982;DHT22;30716;41.740;-70.400;2023-05-07T14:44:09;23.90;44.20
44982;DHT22;30716;41.740;-70.400;2023-05-07T14:46:36;24.00;43.50
44982;DHT22;30716;41.740;-70.400;2023-05-07T14:49:02;23.90;43.40
44982;DHT22;30716;41.740;-70.400;2023-05-07T14:51:29;23.90;43.50
44982;DHT22;30716;41.740;-70.400;2023-05-07T14:53:55;23.90;43.40
44982;DHT22;30716;41.740;-70.400;2023-05-07T14:56:21;23.90;43.50
44982;DHT22;30716;41.740;-70.400;2023-05-07T14:58:47;23.90;43.70
44982;DHT22;30716;41.740;-70.400;2023-05-07T15:01:14;23.90;43.70
44982;DHT22;30716;41.740;-70.400;2023-05-07T15:03:40;23.90;43.50
44982;DHT22;30716;41.740;-70.400;2023-05-07T15:06:07;23.90;43.70
44982;DHT22;30716;41.740;-70.400;2023-05-07T15:08:33;23.90;43.60
44982;DHT22;30716;41.740;-70.400;2023-05-07T15:10:59;23.90;43.60
44982;DHT22;30716;41.740;-70.400;2023-05-07T15:13:25;24.00;43.60
44982;DHT22;30716;41.740;-70.400;2023-05-07T15:15:51;23.90;43.50
44982;DHT22;30716;41.740;-70.400;2023-05-07T15:18:18;23.90;43.70